Time;durP1;ratioP1;P1;durP2;ratioP2;P2;SDS_P1;SDS_P2;PMS_P1;PMS_P2;Temp;Humidity;BMP_temperature;BMP_pressure;BME280_temperature;BME280_humidity;BME280_pressure;Samples;Min_cycle;Max_cycle;Signal;HPM_P1;HPM_P2
2023/02/10 00:00:07;;;;;;;42.83;25.90;;;;;;;;;;4942123;28;20482;-74
2023/02/10 00:02:33;;;;;;;38.67;23.33;;;;;;;;;;4924317;29;20450;-73
2023/02/10 00:04:59;;;;;;;44.23;26.17;;;;;;;;;;4945237;28;20430;-73
2023/02/10 00:07:25;;;;;;;39.90;24.43;;;;;;;;;;4924527;29;20453;-74
2023/02/10 00:09:51;;;;;;;37.00;25.27;;;;;;;;;;4925739;29;21008;-74
2023/02/10 00:12:17;;;;;;;39.33;24.73;;;;;;;;;;4945118;28;20446;-73
2023/02/10 00:14:43;;;;;;;40.60;23.00;;;;;;;;;;4945500;28;20480;-73
2023/02/10 00:17:12;;;;;;;46.43;26.60;;;;;;;;;;4942216;28;20450;-72
2023/02/10 00:19:38;;;;;;;41.10;25.80;;;;;;;;;;4939566;28;20504;-74
2023/02/10 00:22:05;;;;;;;43.37;26.43;;;;;;;;;;4941397;28;20462;-73
2023/02/10 00:24:30;;;;;;;44.93;26.60;;;;;;;;;;4947032;29;20410;-74
2023/02/10 00:26:56;;;;;;;34.67;25.40;;;;;;;;;;4942860;28;20456;-74
2023/02/10 00:29:22;;;;;;;41.63;26.43;;;;;;;;;;4937361;29;20446;-74
2023/02/10 00:31:49;;;;;;;36.77;26.40;;;;;;;;;;4921449;28;20963;-74
2023/02/10 00:34:16;;;;;;;45.30;24.50;;;;;;;;;;4937979;28;20599;-74
2023/02/10 00:36:42;;;;;;;37.60;24.90;;;;;;;;;;4939281;28;20529;-74
2023/02/10 00:39:12;;;;;;;43.43;27.13;;;;;;;;;;4938373;28;20469;-75
2023/02/10 00:41:38;;;;;;;44.93;27.87;;;;;;;;;;4940695;29;20422;-75
2023/02/10 00:44:05;;;;;;;42.30;25.93;;;;;;;;;;4926559;28;20550;-74
2023/02/10 00:46:31;;;;;;;41.40;23.80;;;;;;;;;;4944919;29;20406;-73
2023/02/10 00:48:57;;;;;;;45.60;27.70;;;;;;;;;;4937388;28;21844;-73
2023/02/10 00:51:23;;;;;;;42.75;26.17;;;;;;;;;;4940642;29;20408;-74
2023/02/10 00:53:50;;;;;;;48.43;25.60;;;;;;;;;;4939307;28;20178;-74
2023/02/10 00:56:17;;;;;;;45.40;26.97;;;;;;;;;;4941362;28;20785;-74
2023/02/10 00:58:43;;;;;;;45.23;28.73;;;;;;;;;;4941928;28;20900;-74
2023/02/10 01:01:09;;;;;;;42.67;27.43;;;;;;;;;;4936808;28;20549;-76
2023/02/10 01:03:35;;;;;;;40.50;25.77;;;;;;;;;;4940500;28;20475;-74
2023/02/10 01:06:01;;;;;;;44.93;25.90;;;;;;;;;;4937972;28;20493;-74
2023/02/10 01:08:27;;;;;;;44.73;26.53;;;;;;;;;;4942085;28;20450;-74
2023/02/10 01:11:04;;;;;;;49.20;29.50;;;;;;;;;;4938337;28;20457;-74
2023/02/10 01:13:33;;;;;;;39.60;25.70;;;;;;;;;;4942222;28;20570;-74
2023/02/10 01:16:00;;;;;;;42.00;26.10;;;;;;;;;;4938656;28;20454;-75
2023/02/10 01:18:26;;;;;;;45.63;26.70;;;;;;;;;;4925066;29;20312;-74
2023/02/10 01:20:52;;;;;;;40.53;26.23;;;;;;;;;;4937675;28;20499;-76
2023/02/10 01:23:18;;;;;;;43.77;25.33;;;;;;;;;;4939921;28;20491;-74
2023/02/10 01:25:44;;;;;;;50.05;28.92;;;;;;;;;;4933724;28;20461;-74
2023/02/10 01:28:10;;;;;;;48.30;27.53;;;;;;;;;;4944385;28;20258;-75
2023/02/10 01:30:36;;;;;;;46.83;27.20;;;;;;;;;;4938146;28;20450;-74
2023/02/10 01:33:02;;;;;;;51.57;30.43;;;;;;;;;;4941358;28;20614;-74
2023/02/10 01:35:28;;;;;;;40.67;25.23;;;;;;;;;;4941395;28;20881;-74
2023/02/10 01:37:55;;;;;;;46.43;27.80;;;;;;;;;;4942055;29;20218;-74
2023/02/10 01:40:21;;;;;;;51.33;29.80;;;;;;;;;;4940341;28;20572;-75
2023/02/10 01:42:48;;;;;;;43.60;27.37;;;;;;;;;;4941575;29;20679;-74
2023/02/10 01:45:27;;;;;;;43.10;26.37;;;;;;;;;;4938352;28;20470;-74
2023/02/10 01:47:54;;;;;;;49.87;28.83;;;;;;;;;;4942800;29;20429;-74
2023/02/10 01:50:22;;;;;;;38.83;25.30;;;;;;;;;;4940759;28;20454;-74
2023/02/10 01:52:48;;;;;;;42.80;26.50;;;;;;;;;;4942440;29;20787;-74
2023/02/10 01:55:17;;;;;;;49.53;28.50;;;;;;;;;;4944026;28;20450;-74
2023/02/10 01:57:44;;;;;;;45.70;26.60;;;;;;;;;;4942814;29;20430;-74
2023/02/10 02:00:10;;;;;;;46.28;29.60;;;;;;;;;;4940777;28;20467;-75
2023/02/10 02:02:37;;;;;;;45.80;28.57;;;;;;;;;;4943849;29;20377;-74
2023/02/10 02:05:05;;;;;;;41.70;24.77;;;;;;;;;;4938413;28;20443;-74
2023/02/10 02:07:33;;;;;;;50.17;28.73;;;;;;;;;;4941029;29;20860;-74
2023/02/10 02:09:59;;;;;;;49.43;28.87;;;;;;;;;;4942032;28;20453;-74
2023/02/10 02:12:35;;;;;;;46.70;27.73;;;;;;;;;;4941336;29;20423;-74
2023/02/10 02:15:02;;;;;;;44.20;28.30;;;;;;;;;;4933325;28;20609;-74
2023/02/10 02:17:40;;;;;;;52.87;31.10;;;;;;;;;;4941392;29;20185;-74
2023/02/10 02:20:40;;;;;;;48.20;29.37;;;;;;;;;;4938050;28;20884;-73
2023/02/10 02:23:10;;;;;;;52.23;29.63;;;;;;;;;;4941194;28;20834;-74
2023/02/10 02:25:55;;;;;;;49.27;29.10;;;;;;;;;;4934442;28;20520;-73
2023/02/10 02:28:39;;;;;;;50.17;29.10;;;;;;;;;;4937605;28;20446;-75
2023/02/10 02:31:24;;;;;;;46.93;28.50;;;;;;;;;;4937500;28;20801;-75
2023/02/10 02:33:53;;;;;;;46.93;27.30;;;;;;;;;;4939847;28;20512;-74
2023/02/10 02:36:23;;;;;;;47.60;27.77;;;;;;;;;;4935380;28;20486;-74
2023/02/10 02:38:49;;;;;;;54.83;28.87;;;;;;;;;;4941530;28;20520;-74
2023/02/10 02:41:22;;;;;;;48.13;30.30;;;;;;;;;;4940790;28;20424;-74
2023/02/10 02:43:48;;;;;;;48.77;31.17;;;;;;;;;;4946347;29;21200;-75
2023/02/10 02:46:24;;;;;;;47.67;29.40;;;;;;;;;;4946660;28;20450;-76
2023/02/10 02:49:28;;;;;;;54.10;31.80;;;;;;;;;;4948617;28;20813;-74
2023/02/10 02:52:15;;;;;;;53.00;31.50;;;;;;;;;;4878184;29;21563;-75
2023/02/10 02:54:50;;;;;;;50.20;30.17;;;;;;;;;;4875369;29;20193;-75
2023/02/10 02:57:25;;;;;;;57.23;31.90;;;;;;;;;;4926557;28;20424;-74
2023/02/10 02:59:51;;;;;;;51.03;29.50;;;;;;;;;;4942586;29;20467;-75
2023/02/10 03:02:19;;;;;;;53.83;30.93;;;;;;;;;;4946496;29;20416;-74
2023/02/10 03:04:46;;;;;;;47.07;29.80;;;;;;;;;;4945678;28;20453;-76
2023/02/10 03:07:12;;;;;;;52.90;29.35;;;;;;;;;;4946685;29;20414;-75
2023/02/10 03:09:38;;;;;;;57.22;29.42;;;;;;;;;;4940870;28;20196;-75
2023/02/10 03:12:05;;;;;;;49.92;27.27;;;;;;;;;;4946617;29;20529;-74
2023/02/10 03:17:35;;;;;;;47.60;29.42;;;;;;;;;;4947067;29;20179;-75
2023/02/10 03:20:01;;;;;;;58.75;31.92;;;;;;;;;;4926757;29;20218;-75
2023/02/10 03:22:27;;;;;;;54.13;28.80;;;;;;;;;;4946615;28;20192;-75
2023/02/10 03:24:53;;;;;;;50.27;28.20;;;;;;;;;;4943471;28;20431;-75
2023/02/10 03:27:19;;;;;;;51.30;30.03;;;;;;;;;;4947590;28;20420;-75
2023/02/10 03:29:45;;;;;;;56.83;33.37;;;;;;;;;;4945081;28;20457;-75
2023/02/10 03:32:11;;;;;;;54.47;32.83;;;;;;;;;;4946475;28;20855;-74
2023/02/10 03:34:37;;;;;;;61.83;33.13;;;;;;;;;;4943394;28;20688;-75
2023/02/10 03:37:03;;;;;;;59.00;34.80;;;;;;;;;;4946654;28;20416;-75
2023/02/10 03:39:30;;;;;;;52.07;31.90;;;;;;;;;;4943063;28;21017;-75
2023/02/10 03:41:56;;;;;;;58.27;32.47;;;;;;;;;;4947440;29;20418;-75
2023/02/10 03:44:22;;;;;;;53.03;32.17;;;;;;;;;;4942979;28;20582;-74
2023/02/10 03:46:48;;;;;;;67.40;33.30;;;;;;;;;;4947320;29;20401;-75
2023/02/10 03:49:14;;;;;;;59.63;34.90;;;;;;;;;;4942709;28;20446;-76
2023/02/10 03:51:40;;;;;;;64.80;32.92;;;;;;;;;;4946398;28;20453;-75
2023/02/10 03:54:06;;;;;;;65.57;34.13;;;;;;;;;;4943174;28;20587;-74
2023/02/10 03:56:32;;;;;;;55.60;29.67;;;;;;;;;;4946343;29;20392;-75
2023/02/10 03:59:00;;;;;;;52.27;27.97;;;;;;;;;;4942209;28;20304;-76
2023/02/10 04:01:26;;;;;;;52.33;30.80;;;;;;;;;;4944229;29;21546;-76
2023/02/10 04:03:52;;;;;;;50.70;30.23;;;;;;;;;;4925897;28;20194;-76
2023/02/10 04:06:18;;;;;;;58.95;31.65;;;;;;;;;;4946779;29;20425;-76
2023/02/10 04:08:45;;;;;;;55.70;30.70;;;;;;;;;;4944618;28;20888;-75
2023/02/10 04:11:13;;;;;;;51.33;31.73;;;;;;;;;;4941343;29;20215;-75
2023/02/10 04:13:39;;;;;;;48.22;28.27;;;;;;;;;;4945438;28;20325;-75
2023/02/10 04:16:06;;;;;;;57.13;32.10;;;;;;;;;;4943694;28;20191;-76
2023/02/10 04:18:35;;;;;;;50.50;29.67;;;;;;;;;;4946635;28;20273;-76
2023/02/10 04:21:02;;;;;;;47.67;27.20;;;;;;;;;;4946690;28;20442;-75
2023/02/10 04:23:29;;;;;;;52.28;29.50;;;;;;;;;;4952187;28;20183;-76
2023/02/10 04:25:55;;;;;;;64.25;32.50;;;;;;;;;;4940879;28;20199;-77
2023/02/10 04:28:21;;;;;;;57.15;33.00;;;;;;;;;;4944400;29;20185;-76
2023/02/10 04:30:50;;;;;;;57.05;30.15;;;;;;;;;;4928042;28;20241;-76
2023/02/10 04:33:16;;;;;;;56.17;32.33;;;;;;;;;;4946105;28;20202;-76
2023/02/10 04:35:44;;;;;;;66.10;34.60;;;;;;;;;;4930373;29;20598;-76
2023/02/10 04:38:10;;;;;;;58.13;28.55;;;;;;;;;;4937516;28;20474;-75
2023/02/10 04:40:36;;;;;;;55.60;28.92;;;;;;;;;;4951446;28;20255;-76
2023/02/10 04:43:02;;;;;;;60.50;32.22;;;;;;;;;;4946905;28;20206;-76
2023/02/10 04:45:28;;;;;;;61.85;34.05;;;;;;;;;;4946669;28;20214;-76
2023/02/10 04:47:54;;;;;;;72.30;34.97;;;;;;;;;;4943005;28;20576;-75
2023/02/10 04:50:20;;;;;;;56.67;33.38;;;;;;;;;;4948235;28;20224;-76
2023/02/10 04:52:46;;;;;;;60.50;32.70;;;;;;;;;;4947626;28;20191;-75
2023/02/10 04:55:12;;;;;;;57.83;32.10;;;;;;;;;;4946487;28;20194;-76
2023/02/10 04:57:38;;;;;;;52.35;30.48;;;;;;;;;;4947375;28;20442;-76
2023/02/10 05:00:05;;;;;;;55.60;28.67;;;;;;;;;;4952089;28;20268;-75
2023/02/10 05:02:30;;;;;;;63.88;35.53;;;;;;;;;;4940054;28;20456;-75
2023/02/10 05:04:56;;;;;;;64.57;34.73;;;;;;;;;;4927426;29;20674;-75
2023/02/10 05:07:23;;;;;;;60.80;32.70;;;;;;;;;;4942234;28;20450;-75
2023/02/10 05:09:49;;;;;;;75.03;32.72;;;;;;;;;;4938548;28;20463;-75
2023/02/10 05:12:15;;;;;;;69.63;36.03;;;;;;;;;;4935535;28;20223;-74
2023/02/10 05:14:43;;;;;;;59.72;33.45;;;;;;;;;;4943788;28;20441;-75
2023/02/10 05:17:09;;;;;;;83.30;40.03;;;;;;;;;;4942079;28;20270;-76
2023/02/10 05:19:38;;;;;;;90.75;41.47;;;;;;;;;;4945024;28;20465;-76
2023/02/10 05:22:04;;;;;;;88.20;41.03;;;;;;;;;;4938558;28;20204;-76
2023/02/10 05:24:30;;;;;;;90.80;40.17;;;;;;;;;;4932473;28;20462;-75
2023/02/10 05:26:56;;;;;;;75.60;38.17;;;;;;;;;;4942087;29;20431;-76
2023/02/10 05:29:22;;;;;;;68.60;35.60;;;;;;;;;;4938868;28;20466;-76
2023/02/10 05:31:48;;;;;;;72.43;37.05;;;;;;;;;;4944789;28;20225;-77
2023/02/10 05:34:14;;;;;;;73.57;33.93;;;;;;;;;;4937674;28;20231;-76
2023/02/10 05:36:43;;;;;;;76.17;35.37;;;;;;;;;;4943351;28;20473;-76
2023/02/10 05:39:24;;;;;;;68.93;35.43;;;;;;;;;;4939271;28;20988;-76
2023/02/10 05:41:59;;;;;;;70.87;37.93;;;;;;;;;;4942181;29;20434;-75
2023/02/10 05:44:26;;;;;;;68.22;35.33;;;;;;;;;;4938650;28;20469;-75
2023/02/10 05:46:53;;;;;;;67.63;34.10;;;;;;;;;;4943629;28;20598;-75
2023/02/10 05:49:19;;;;;;;64.60;31.20;;;;;;;;;;4941904;28;20560;-75
2023/02/10 05:51:45;;;;;;;58.75;34.33;;;;;;;;;;4940502;28;20917;-75
2023/02/10 05:54:11;;;;;;;64.13;35.05;;;;;;;;;;4941481;28;20671;-76
2023/02/10 05:56:37;;;;;;;63.00;34.80;;;;;;;;;;4946122;28;20201;-75
2023/02/10 05:59:03;;;;;;;55.87;33.13;;;;;;;;;;4938793;28;20563;-76
2023/02/10 06:01:29;;;;;;;67.45;34.25;;;;;;;;;;4941756;29;20839;-76
2023/02/10 06:03:56;;;;;;;61.87;33.70;;;;;;;;;;4944648;28;20203;-75
2023/02/10 06:06:22;;;;;;;54.90;29.08;;;;;;;;;;4928125;29;20415;-76
2023/02/10 06:08:48;;;;;;;57.20;31.17;;;;;;;;;;4936835;28;20222;-75
2023/02/10 06:11:14;;;;;;;57.20;30.63;;;;;;;;;;4937135;28;20215;-76
2023/02/10 06:13:40;;;;;;;56.83;32.30;;;;;;;;;;4944797;28;20410;-76
2023/02/10 06:16:06;;;;;;;57.13;28.98;;;;;;;;;;4935256;28;20516;-77
2023/02/10 06:18:32;;;;;;;59.92;33.50;;;;;;;;;;4944697;29;20281;-76
2023/02/10 06:20:58;;;;;;;52.53;26.83;;;;;;;;;;4934276;28;20609;-76
2023/02/10 06:23:25;;;;;;;61.90;28.90;;;;;;;;;;4949715;28;20397;-76
2023/02/10 06:25:54;;;;;;;59.70;30.77;;;;;;;;;;4947076;28;20461;-76
2023/02/10 06:28:27;;;;;;;59.13;33.72;;;;;;;;;;4948272;29;20469;-75
2023/02/10 06:30:53;;;;;;;57.75;31.95;;;;;;;;;;4944186;28;20499;-75
2023/02/10 06:33:19;;;;;;;53.50;28.83;;;;;;;;;;4948458;28;20598;-76
2023/02/10 06:35:46;;;;;;;54.25;29.85;;;;;;;;;;4947446;28;20736;-75
2023/02/10 06:38:12;;;;;;;59.63;31.95;;;;;;;;;;4949409;28;20196;-76
2023/02/10 06:40:38;;;;;;;59.37;32.90;;;;;;;;;;4946330;28;20202;-75
2023/02/10 06:43:04;;;;;;;54.30;31.17;;;;;;;;;;4948846;29;20411;-75
2023/02/10 06:45:31;;;;;;;51.60;29.37;;;;;;;;;;4885813;28;1080374;-75
2023/02/10 06:47:57;;;;;;;56.67;30.80;;;;;;;;;;4948884;28;20178;-77
2023/02/10 06:50:23;;;;;;;47.33;28.40;;;;;;;;;;4946962;28;20440;-77
2023/02/10 06:52:49;;;;;;;51.90;29.97;;;;;;;;;;4949589;29;20475;-76
2023/02/10 06:55:15;;;;;;;59.87;31.80;;;;;;;;;;4943873;28;20515;-76
2023/02/10 06:57:41;;;;;;;57.67;30.47;;;;;;;;;;4937692;28;20831;-75
2023/02/10 07:00:10;;;;;;;55.27;30.33;;;;;;;;;;4942282;28;20571;-76
2023/02/10 07:02:36;;;;;;;58.07;30.93;;;;;;;;;;4928619;29;20389;-76
2023/02/10 07:05:05;;;;;;;49.73;28.07;;;;;;;;;;4929648;29;20430;-76
2023/02/10 07:07:31;;;;;;;71.33;32.30;;;;;;;;;;4948486;28;20500;-76
2023/02/10 07:09:57;;;;;;;70.03;31.13;;;;;;;;;;4930020;29;20921;-75
2023/02/10 07:12:24;;;;;;;62.93;32.20;;;;;;;;;;4937074;28;20932;-75
2023/02/10 07:14:51;;;;;;;61.17;31.97;;;;;;;;;;4944738;28;20511;-76
2023/02/10 07:17:17;;;;;;;64.90;34.17;;;;;;;;;;4945271;28;20439;-75
2023/02/10 07:19:43;;;;;;;61.40;32.93;;;;;;;;;;4942808;28;20520;-76
2023/02/10 07:22:09;;;;;;;63.30;35.07;;;;;;;;;;4947459;28;20430;-77
2023/02/10 07:24:35;;;;;;;56.47;30.43;;;;;;;;;;4949287;28;20461;-75
2023/02/10 07:27:02;;;;;;;55.60;30.07;;;;;;;;;;4948772;28;20454;-76
2023/02/10 07:29:28;;;;;;;55.27;32.20;;;;;;;;;;4944543;28;20415;-76
2023/02/10 07:31:54;;;;;;;52.37;32.03;;;;;;;;;;4948823;29;20426;-76
2023/02/10 07:34:21;;;;;;;62.33;31.10;;;;;;;;;;4931299;29;20451;-76
2023/02/10 07:36:53;;;;;;;60.67;33.00;;;;;;;;;;4938895;28;20987;-75
2023/02/10 07:39:19;;;;;;;63.63;34.03;;;;;;;;;;4948495;29;20532;-77
2023/02/10 07:41:45;;;;;;;53.00;32.30;;;;;;;;;;4932519;29;20435;-76
2023/02/10 07:44:11;;;;;;;57.85;33.10;;;;;;;;;;4947778;28;20440;-77
2023/02/10 07:46:37;;;;;;;49.33;30.50;;;;;;;;;;4954711;28;20201;-77
2023/02/10 07:49:03;;;;;;;55.70;30.73;;;;;;;;;;4948321;28;20425;-77
2023/02/10 07:51:29;;;;;;;60.23;32.93;;;;;;;;;;4926469;29;20461;-76
2023/02/10 07:53:55;;;;;;;57.03;30.87;;;;;;;;;;4949105;28;20944;-76
2023/02/10 07:56:21;;;;;;;52.70;31.30;;;;;;;;;;4947569;28;20408;-76
2023/02/10 07:58:47;;;;;;;52.37;31.20;;;;;;;;;;4949334;28;20927;-76
2023/02/10 08:01:13;;;;;;;47.50;30.37;;;;;;;;;;4946673;28;20490;-76
2023/02/10 08:03:39;;;;;;;54.47;29.43;;;;;;;;;;4948453;29;20822;-76
2023/02/10 08:06:06;;;;;;;55.53;28.00;;;;;;;;;;4932017;28;20436;-76
2023/02/10 08:08:32;;;;;;;49.75;28.20;;;;;;;;;;4947857;28;20513;-76
2023/02/10 08:10:58;;;;;;;59.90;30.13;;;;;;;;;;4939320;28;20198;-76
2023/02/10 08:13:25;;;;;;;53.03;29.40;;;;;;;;;;4948118;29;20414;-76
2023/02/10 08:15:51;;;;;;;45.23;30.90;;;;;;;;;;4944952;28;20889;-76
2023/02/10 08:18:17;;;;;;;55.70;31.37;;;;;;;;;;4943850;29;20996;-75
2023/02/10 08:20:43;;;;;;;48.30;29.33;;;;;;;;;;4950937;28;20466;-74
2023/02/10 08:23:18;;;;;;;48.08;25.70;;;;;;;;;;4947545;29;20422;-76
2023/02/10 08:25:44;;;;;;;50.77;28.77;;;;;;;;;;4938197;28;20381;-75
2023/02/10 08:28:10;;;;;;;51.53;30.53;;;;;;;;;;4942697;29;21003;-77
2023/02/10 08:30:36;;;;;;;53.47;30.00;;;;;;;;;;4927065;28;20958;-77
2023/02/10 08:33:02;;;;;;;47.43;28.77;;;;;;;;;;4947729;28;20964;-77
2023/02/10 08:35:28;;;;;;;52.60;28.93;;;;;;;;;;4943668;28;21062;-76
2023/02/10 08:37:54;;;;;;;52.87;30.17;;;;;;;;;;4930089;28;20497;-78
2023/02/10 08:40:20;;;;;;;42.10;24.93;;;;;;;;;;4928397;29;21230;-76
2023/02/10 08:42:46;;;;;;;48.50;28.43;;;;;;;;;;4944902;28;20454;-77
2023/02/10 08:45:12;;;;;;;41.27;26.80;;;;;;;;;;4948603;28;20824;-75
2023/02/10 08:47:38;;;;;;;51.00;26.43;;;;;;;;;;4946136;28;20486;-77
2023/02/10 08:50:05;;;;;;;37.87;25.17;;;;;;;;;;4950385;28;20477;-75
2023/02/10 08:52:31;;;;;;;49.22;28.20;;;;;;;;;;4938529;28;20512;-76
2023/02/10 08:54:57;;;;;;;46.27;27.90;;;;;;;;;;4954060;28;20191;-76
2023/02/10 08:57:23;;;;;;;59.43;30.53;;;;;;;;;;4952675;28;20445;-76
2023/02/10 08:59:49;;;;;;;47.13;29.00;;;;;;;;;;4941789;28;20519;-75
2023/02/10 09:02:15;;;;;;;52.23;28.23;;;;;;;;;;4944988;28;21016;-76
2023/02/10 09:04:41;;;;;;;50.10;28.70;;;;;;;;;;4946483;28;20568;-76
2023/02/10 09:07:11;;;;;;;46.07;28.57;;;;;;;;;;4944823;28;20434;-76
2023/02/10 09:09:39;;;;;;;43.90;25.87;;;;;;;;;;4943928;28;20430;-76
2023/02/10 09:12:05;;;;;;;44.13;24.13;;;;;;;;;;4939607;28;20702;-76
2023/02/10 09:14:31;;;;;;;52.23;28.70;;;;;;;;;;4944997;29;20952;-76
2023/02/10 09:16:57;;;;;;;53.60;30.40;;;;;;;;;;4943184;28;20802;-76
2023/02/10 09:19:23;;;;;;;46.60;26.30;;;;;;;;;;4948469;28;20466;-76
2023/02/10 09:21:50;;;;;;;46.83;25.50;;;;;;;;;;4947878;28;20437;-77
2023/02/10 09:24:16;;;;;;;43.27;27.23;;;;;;;;;;4943416;29;20418;-75
2023/02/10 09:26:43;;;;;;;46.40;27.20;;;;;;;;;;4944251;28;20529;-75
2023/02/10 09:29:10;;;;;;;51.50;29.80;;;;;;;;;;4945218;29;20914;-76
2023/02/10 09:31:36;;;;;;;42.60;23.70;;;;;;;;;;4942967;28;20852;-76
2023/02/10 09:34:03;;;;;;;52.57;29.43;;;;;;;;;;4943127;28;20946;-77
2023/02/10 09:36:28;;;;;;;59.33;31.47;;;;;;;;;;4941305;28;20438;-77
2023/02/10 09:38:55;;;;;;;50.37;25.07;;;;;;;;;;4945557;29;20933;-77
2023/02/10 09:41:31;;;;;;;53.93;26.63;;;;;;;;;;4974961;23;20492;-91
2023/02/10 09:43:57;;;;;;;57.60;27.57;;;;;;;;;;4978028;28;20444;-89
2023/02/10 09:46:39;;;;;;;42.20;21.07;;;;;;;;;;4987321;28;20917;-92
2023/02/10 09:49:15;;;;;;;53.00;30.40;;;;;;;;;;4978993;28;20448;-91
2023/02/10 09:52:06;;;;;;;55.63;30.33;;;;;;;;;;4974962;28;20530;-91
2023/02/10 09:54:33;;;;;;;46.43;24.67;;;;;;;;;;4993957;28;20515;-91
2023/02/10 09:57:09;;;;;;;51.10;27.63;;;;;;;;;;4978553;28;20856;-91
2023/02/10 09:59:36;;;;;;;57.57;29.60;;;;;;;;;;4970363;28;20483;-90
2023/02/10 10:02:14;;;;;;;51.87;27.10;;;;;;;;;;4981916;28;20425;-91
2023/02/10 10:04:43;;;;;;;53.13;29.30;;;;;;;;;;5003022;28;20444;-90
2023/02/10 10:07:31;;;;;;;45.50;27.37;;;;;;;;;;4987190;28;20441;-90
2023/02/10 10:10:00;;;;;;;48.67;25.97;;;;;;;;;;4980486;28;20964;-90
2023/02/10 10:12:26;;;;;;;53.00;29.07;;;;;;;;;;4976704;28;20459;-90
2023/02/10 10:14:53;;;;;;;46.87;28.03;;;;;;;;;;4971089;28;20444;-90
2023/02/10 10:17:25;;;;;;;41.80;25.17;;;;;;;;;;4973115;28;20699;-91
2023/02/10 10:20:13;;;;;;;42.97;27.07;;;;;;;;;;4978808;28;20729;-91
2023/02/10 10:22:45;;;;;;;45.60;28.37;;;;;;;;;;4981200;28;20512;-91
2023/02/10 10:25:17;;;;;;;55.33;27.40;;;;;;;;;;4980781;28;20471;-92
2023/02/10 10:27:56;;;;;;;48.90;27.47;;;;;;;;;;4982802;28;20454;-90
2023/02/10 10:30:30;;;;;;;42.07;28.30;;;;;;;;;;4984792;28;20619;-90
2023/02/10 10:32:59;;;;;;;44.40;28.20;;;;;;;;;;4979830;28;20415;-90
2023/02/10 10:35:30;;;;;;;46.20;26.17;;;;;;;;;;4976798;28;20831;-93
2023/02/10 10:40:59;;;;;;;41.10;26.00;;;;;;;;;;4998139;28;20463;-91
2023/02/10 10:43:27;;;;;;;43.17;28.23;;;;;;;;;;5002104;28;20435;-91
2023/02/10 10:46:12;;;;;;;38.17;27.13;;;;;;;;;;5011538;28;20446;-91
2023/02/10 10:48:46;;;;;;;44.83;23.37;;;;;;;;;;4987022;28;20420;-93
2023/02/10 10:51:15;;;;;;;47.20;25.67;;;;;;;;;;4999620;28;20967;-93
2023/02/10 10:53:43;;;;;;;44.77;28.77;;;;;;;;;;4986406;28;20434;-90
2023/02/10 10:56:24;;;;;;;44.80;27.30;;;;;;;;;;4996811;28;20449;-91
2023/02/10 10:58:50;;;;;;;40.40;26.70;;;;;;;;;;5007885;28;20434;-90
2023/02/10 11:01:17;;;;;;;42.37;24.83;;;;;;;;;;5004507;28;20527;-90
2023/02/10 11:03:46;;;;;;;44.80;26.90;;;;;;;;;;5005031;28;20440;-92
2023/02/10 11:06:14;;;;;;;46.60;26.67;;;;;;;;;;4997142;28;20524;-90
2023/02/10 11:09:06;;;;;;;39.23;22.87;;;;;;;;;;4981306;28;20545;-91
2023/02/10 11:11:34;;;;;;;35.03;24.10;;;;;;;;;;4999912;28;20806;-91
2023/02/10 11:14:01;;;;;;;46.70;26.03;;;;;;;;;;4999280;28;20436;-90
2023/02/10 11:16:28;;;;;;;41.80;25.63;;;;;;;;;;5008638;28;20440;-90
2023/02/10 11:19:02;;;;;;;40.43;26.50;;;;;;;;;;4992244;28;20440;-92
2023/02/10 11:21:40;;;;;;;45.83;26.97;;;;;;;;;;4988519;28;20478;-91
2023/02/10 11:24:18;;;;;;;36.50;23.87;;;;;;;;;;4985664;28;20486;-91
2023/02/10 11:26:53;;;;;;;41.43;26.10;;;;;;;;;;4985808;28;20528;-92
2023/02/10 11:29:19;;;;;;;51.40;27.20;;;;;;;;;;4997352;28;20436;-91
2023/02/10 11:31:45;;;;;;;43.93;24.07;;;;;;;;;;4989417;28;20804;-93
2023/02/10 11:34:20;;;;;;;59.73;27.20;;;;;;;;;;5014252;28;20466;-91
2023/02/10 11:36:51;;;;;;;39.67;26.40;;;;;;;;;;4994305;28;20528;-91
2023/02/10 11:39:24;;;;;;;42.97;27.40;;;;;;;;;;5005860;28;20515;-90
2023/02/10 11:41:50;;;;;;;39.17;27.67;;;;;;;;;;4987797;28;21006;-93
2023/02/10 11:44:31;;;;;;;38.50;25.93;;;;;;;;;;5002937;28;20826;-90
2023/02/10 11:46:58;;;;;;;44.60;22.93;;;;;;;;;;4990569;28;20440;-92
2023/02/10 11:49:27;;;;;;;39.77;26.07;;;;;;;;;;4995362;28;20546;-92
2023/02/10 11:51:57;;;;;;;41.30;23.63;;;;;;;;;;4986671;28;20444;-92
2023/02/10 11:54:24;;;;;;;31.13;23.20;;;;;;;;;;4991602;28;20951;-92
2023/02/10 11:59:58;;;;;;;44.60;23.83;;;;;;;;;;5002868;28;20491;-90
2023/02/10 12:02:36;;;;;;;37.90;23.97;;;;;;;;;;4985409;28;20541;-93
2023/02/10 12:05:02;;;;;;;40.70;23.77;;;;;;;;;;4995974;28;20454;-91
2023/02/10 12:07:47;;;;;;;32.17;20.60;;;;;;;;;;5003884;28;20577;-89
2023/02/10 12:10:20;;;;;;;35.13;22.10;;;;;;;;;;4981771;28;20451;-91
2023/02/10 12:13:06;;;;;;;37.10;21.80;;;;;;;;;;5001887;28;20510;-94
2023/02/10 12:15:42;;;;;;;39.67;22.53;;;;;;;;;;4984090;28;20436;-92
2023/02/10 12:18:21;;;;;;;33.90;21.70;;;;;;;;;;4996390;28;20419;-92
2023/02/10 12:20:55;;;;;;;36.80;21.90;;;;;;;;;;4985610;28;20476;-88
2023/02/10 12:23:36;;;;;;;36.50;22.97;;;;;;;;;;4996051;28;20553;-91
2023/02/10 12:26:02;;;;;;;35.40;20.17;;;;;;;;;;4997713;28;20448;-89
2023/02/10 12:28:40;;;;;;;37.13;23.70;;;;;;;;;;4992815;28;20483;-91
2023/02/10 12:31:22;;;;;;;33.67;22.10;;;;;;;;;;4988951;28;20440;-92
2023/02/10 12:34:06;;;;;;;23.50;18.47;;;;;;;;;;4996220;28;20574;-91
2023/02/10 12:36:41;;;;;;;24.37;16.40;;;;;;;;;;4995129;28;20438;-93
2023/02/10 12:39:22;;;;;;;26.60;17.20;;;;;;;;;;5013213;28;20415;-91
2023/02/10 12:42:07;;;;;;;21.53;12.90;;;;;;;;;;4989000;28;20524;-92
2023/02/10 12:44:33;;;;;;;17.73;12.50;;;;;;;;;;4997573;28;20429;-90
2023/02/10 12:47:08;;;;;;;26.10;13.80;;;;;;;;;;5004584;28;20535;-88
2023/02/10 12:49:53;;;;;;;22.90;13.40;;;;;;;;;;5004694;28;21019;-92
2023/02/10 12:52:35;;;;;;;28.00;14.80;;;;;;;;;;4980739;28;21187;-92
2023/02/10 12:55:13;;;;;;;28.30;12.50;;;;;;;;;;5003374;28;21234;-90
2023/02/10 12:57:51;;;;;;;21.50;13.60;;;;;;;;;;4984807;28;20420;-89
2023/02/10 13:01:00;;;;;;;25.23;14.57;;;;;;;;;;4995121;28;20499;-92
2023/02/10 13:03:34;;;;;;;21.37;13.60;;;;;;;;;;4933294;29;20438;-91
2023/02/10 13:06:18;;;;;;;20.47;13.50;;;;;;;;;;4943744;28;20486;-91
2023/02/10 13:08:49;;;;;;;23.50;15.40;;;;;;;;;;4985457;23;20488;-76
2023/02/10 13:11:27;;;;;;;23.03;14.70;;;;;;;;;;5042879;28;20417;-75
2023/02/10 13:13:54;;;;;;;17.10;11.47;;;;;;;;;;5046225;28;20443;-74
2023/02/10 13:16:23;;;;;;;18.73;13.00;;;;;;;;;;5043599;28;20472;-75
2023/02/10 13:18:58;;;;;;;15.80;11.70;;;;;;;;;;5043346;28;20496;-77
2023/02/10 13:21:28;;;;;;;31.00;13.67;;;;;;;;;;5042164;28;20452;-74
2023/02/10 13:23:57;;;;;;;24.57;14.47;;;;;;;;;;5016849;28;20583;-75
2023/02/10 13:26:35;;;;;;;22.97;15.20;;;;;;;;;;5051560;28;20430;-75
2023/02/10 13:29:15;;;;;;;21.87;14.70;;;;;;;;;;5022882;28;20736;-77
2023/02/10 13:31:57;;;;;;;23.50;14.73;;;;;;;;;;5040576;28;20433;-75
2023/02/10 13:34:28;;;;;;;21.70;13.60;;;;;;;;;;5034581;28;20449;-76
2023/02/10 13:36:57;;;;;;;22.57;13.37;;;;;;;;;;5047917;28;20928;-76
2023/02/10 13:39:28;;;;;;;29.50;16.93;;;;;;;;;;5044886;28;20465;-77
2023/02/10 13:42:24;;;;;;;28.50;15.23;;;;;;;;;;5046399;28;20495;-76
2023/02/10 13:45:06;;;;;;;30.73;16.97;;;;;;;;;;4969822;28;21017;-75
2023/02/10 13:47:43;;;;;;;26.03;16.27;;;;;;;;;;5024507;28;20753;-73
2023/02/10 13:50:12;;;;;;;25.03;11.47;;;;;;;;;;5025091;28;20842;-77
2023/02/10 13:52:49;;;;;;;26.10;16.77;;;;;;;;;;5042700;28;20638;-75
2023/02/10 13:55:15;;;;;;;24.10;18.13;;;;;;;;;;5016667;28;20441;-76
2023/02/10 13:58:01;;;;;;;28.20;17.50;;;;;;;;;;5031464;28;21203;-74
2023/02/10 14:00:28;;;;;;;22.50;15.93;;;;;;;;;;5013089;28;20482;-76
2023/02/10 14:02:59;;;;;;;39.83;19.47;;;;;;;;;;5014556;28;20830;-75
2023/02/10 14:05:47;;;;;;;32.43;20.47;;;;;;;;;;5049303;28;20515;-77
2023/02/10 14:08:35;;;;;;;32.30;19.30;;;;;;;;;;5018526;28;20425;-76
2023/02/10 14:11:01;;;;;;;26.63;18.77;;;;;;;;;;5014508;28;20972;-76
2023/02/10 14:13:31;;;;;;;31.13;18.43;;;;;;;;;;5031415;28;20426;-76
2023/02/10 14:16:01;;;;;;;30.53;17.83;;;;;;;;;;5033658;28;20441;-75
2023/02/10 14:18:31;;;;;;;36.13;21.87;;;;;;;;;;5002671;28;20717;-77
2023/02/10 14:21:02;;;;;;;35.67;19.17;;;;;;;;;;5003256;28;20524;-77
2023/02/10 14:23:30;;;;;;;28.73;18.57;;;;;;;;;;5011700;28;20675;-76
2023/02/10 14:25:57;;;;;;;18.67;12.67;;;;;;;;;;5014313;28;20815;-76
2023/02/10 14:28:28;;;;;;;33.63;19.53;;;;;;;;;;5012527;28;20422;-75
2023/02/10 14:31:16;;;;;;;36.73;19.60;;;;;;;;;;4998232;28;20535;-74
2023/02/10 14:33:42;;;;;;;30.10;18.13;;;;;;;;;;5025800;28;20443;-76
2023/02/10 14:36:18;;;;;;;31.00;20.00;;;;;;;;;;5028558;28;20435;-75
2023/02/10 14:38:46;;;;;;;31.33;18.03;;;;;;;;;;5034263;28;20437;-76